sensor_id;sensor_type;location;lat;lon;timestamp;P1;durP1;ratioP1;P2;durP2;ratioP2
22774;SDS011;11554;51.106;3.684;2024-02-23T00:00:00;5.60;;;0.90;;
22774;SDS011;11554;51.106;3.684;2024-02-23T00:05:00;5.60;;;0.90;;
22774;SDS011;11554;51.106;3.684;2024-02-23T00:10:00;8.20;;;1.20;;
22774;SDS011;11554;51.106;3.684;2024-02-23T00:15:00;8.20;;;1.20;;
22774;SDS011;11554;51.106;3.684;2024-02-23T00:20:00;11.90;;;1.80;;
22774;SDS011;11554;51.106;3.684;2024-02-23T00:25:00;11.90;;;1.80;;
22774;SDS011;11554;51.106;3.684;2024-02-23T00:30:00;10.50;;;1.50;;
22774;SDS011;11554;51.106;3.684;2024-02-23T00:35:00;10.50;;;1.50;;
22774;SDS011;11554;51.106;3.684;2024-02-23T00:40:00;8.60;;;1.40;;
22774;SDS011;11554;51.106;3.684;2024-02-23T00:45:00;8.60;;;1.40;;
22774;SDS011;11554;51.106;3.684;2024-02-23T00:50:01;9.20;;;1.20;;
22774;SDS011;11554;51.106;3.684;2024-02-23T00:55:00;9.20;;;1.20;;
22774;SDS011;11554;51.106;3.684;2024-02-23T01:00:00;7.40;;;0.90;;
22774;SDS011;11554;51.106;3.684;2024-02-23T01:05:00;7.40;;;0.90;;
22774;SDS011;11554;51.106;3.684;2024-02-23T01:10:00;8.70;;;1.20;;
22774;SDS011;11554;51.106;3.684;2024-02-23T01:15:00;8.70;;;1.20;;
22774;SDS011;11554;51.106;3.684;2024-02-23T01:20:00;4.80;;;1.10;;
22774;SDS011;11554;51.106;3.684;2024-02-23T01:25:00;4.80;;;1.10;;
22774;SDS011;11554;51.106;3.684;2024-02-23T01:30:00;7.70;;;1.10;;
22774;SDS011;11554;51.106;3.684;2024-02-23T01:35:00;7.70;;;1.10;;
22774;SDS011;11554;51.106;3.684;2024-02-23T01:40:00;7.90;;;1.10;;
22774;SDS011;11554;51.106;3.684;2024-02-23T01:45:00;7.90;;;1.10;;
22774;SDS011;11554;51.106;3.684;2024-02-23T01:50:00;5.60;;;1.00;;
22774;SDS011;11554;51.106;3.684;2024-02-23T01:55:01;5.60;;;1.00;;
22774;SDS011;11554;51.106;3.684;2024-02-23T02:00:01;6.10;;;1.20;;
22774;SDS011;11554;51.106;3.684;2024-02-23T02:05:00;6.10;;;1.20;;
22774;SDS011;11554;51.106;3.684;2024-02-23T02:10:00;9.20;;;1.30;;
22774;SDS011;11554;51.106;3.684;2024-02-23T02:15:00;9.20;;;1.30;;
22774;SDS011;11554;51.106;3.684;2024-02-23T02:20:02;9.70;;;1.10;;
22774;SDS011;11554;51.106;3.684;2024-02-23T02:25:00;9.70;;;1.10;;
22774;SDS011;11554;51.106;3.684;2024-02-23T02:30:00;4.80;;;1.00;;
22774;SDS011;11554;51.106;3.684;2024-02-23T02:35:00;4.80;;;1.00;;
22774;SDS011;11554;51.106;3.684;2024-02-23T02:40:00;7.30;;;1.30;;
22774;SDS011;11554;51.106;3.684;2024-02-23T02:45:00;7.30;;;1.30;;
22774;SDS011;11554;51.106;3.684;2024-02-23T02:50:00;6.70;;;1.00;;
22774;SDS011;11554;51.106;3.684;2024-02-23T02:55:00;6.70;;;1.00;;
22774;SDS011;11554;51.106;3.684;2024-02-23T03:00:00;7.10;;;1.50;;
22774;SDS011;11554;51.106;3.684;2024-02-23T03:05:00;7.10;;;1.50;;
22774;SDS011;11554;51.106;3.684;2024-02-23T03:10:00;5.70;;;1.60;;
22774;SDS011;11554;51.106;3.684;2024-02-23T03:15:00;5.70;;;1.60;;
22774;SDS011;11554;51.106;3.684;2024-02-23T03:20:00;7.00;;;1.40;;
22774;SDS011;11554;51.106;3.684;2024-02-23T03:25:00;7.00;;;1.40;;
22774;SDS011;11554;51.106;3.684;2024-02-23T03:30:00;5.60;;;1.10;;
22774;SDS011;11554;51.106;3.684;2024-02-23T03:35:00;5.60;;;1.10;;
22774;SDS011;11554;51.106;3.684;2024-02-23T03:40:00;9.30;;;1.20;;
22774;SDS011;11554;51.106;3.684;2024-02-23T03:45:00;9.30;;;1.20;;
22774;SDS011;11554;51.106;3.684;2024-02-23T03:50:00;5.60;;;1.20;;
22774;SDS011;11554;51.106;3.684;2024-02-23T03:55:00;5.60;;;1.20;;
22774;SDS011;11554;51.106;3.684;2024-02-23T04:00:00;9.70;;;1.50;;
22774;SDS011;11554;51.106;3.684;2024-02-23T04:05:00;9.70;;;1.50;;
22774;SDS011;11554;51.106;3.684;2024-02-23T04:10:00;6.80;;;1.90;;
22774;SDS011;11554;51.106;3.684;2024-02-23T04:15:00;6.80;;;1.90;;
22774;SDS011;11554;51.106;3.684;2024-02-23T04:20:05;5.50;;;1.10;;
22774;SDS011;11554;51.106;3.684;2024-02-23T04:25:00;5.50;;;1.10;;
22774;SDS011;11554;51.106;3.684;2024-02-23T04:30:00;6.80;;;1.40;;
22774;SDS011;11554;51.106;3.684;2024-02-23T04:35:00;6.80;;;1.40;;
22774;SDS011;11554;51.106;3.684;2024-02-23T04:40:00;7.70;;;1.50;;
22774;SDS011;11554;51.106;3.684;2024-02-23T04:45:00;7.70;;;1.50;;
22774;SDS011;11554;51.106;3.684;2024-02-23T04:50:00;4.80;;;1.00;;
22774;SDS011;11554;51.106;3.684;2024-02-23T04:55:00;4.80;;;1.00;;
22774;SDS011;11554;51.106;3.684;2024-02-23T05:00:00;10.10;;;1.40;;
22774;SDS011;11554;51.106;3.684;2024-02-23T05:05:00;10.10;;;1.40;;
22774;SDS011;11554;51.106;3.684;2024-02-23T05:10:00;9.70;;;1.50;;
22774;SDS011;11554;51.106;3.684;2024-02-23T05:15:00;9.70;;;1.50;;
22774;SDS011;11554;51.106;3.684;2024-02-23T05:20:00;10.20;;;1.10;;
22774;SDS011;11554;51.106;3.684;2024-02-23T05:25:00;10.20;;;1.10;;
22774;SDS011;11554;51.106;3.684;2024-02-23T05:30:00;5.80;;;1.00;;
22774;SDS011;11554;51.106;3.684;2024-02-23T05:35:00;5.80;;;1.00;;
22774;SDS011;11554;51.106;3.684;2024-02-23T05:40:00;4.20;;;0.70;;
22774;SDS011;11554;51.106;3.684;2024-02-23T05:45:00;4.20;;;0.70;;
22774;SDS011;11554;51.106;3.684;2024-02-23T05:50:00;5.50;;;1.20;;
22774;SDS011;11554;51.106;3.684;2024-02-23T05:55:00;5.50;;;1.20;;
22774;SDS011;11554;51.106;3.684;2024-02-23T06:00:00;7.80;;;1.10;;
22774;SDS011;11554;51.106;3.684;2024-02-23T06:05:00;7.80;;;1.10;;
22774;SDS011;11554;51.106;3.684;2024-02-23T06:10:00;6.20;;;1.00;;
22774;SDS011;11554;51.106;3.684;2024-02-23T06:15:00;6.20;;;1.00;;
22774;SDS011;11554;51.106;3.684;2024-02-23T06:20:00;5.90;;;1.20;;
22774;SDS011;11554;51.106;3.684;2024-02-23T06:25:02;5.90;;;1.20;;
22774;SDS011;11554;51.106;3.684;2024-02-23T06:30:00;4.70;;;1.20;;
22774;SDS011;11554;51.106;3.684;2024-02-23T06:35:00;4.70;;;1.20;;
22774;SDS011;11554;51.106;3.684;2024-02-23T06:40:00;11.20;;;1.30;;
22774;SDS011;11554;51.106;3.684;2024-02-23T06:45:00;11.20;;;1.30;;
22774;SDS011;11554;51.106;3.684;2024-02-23T06:50:00;8.00;;;1.50;;
22774;SDS011;11554;51.106;3.684;2024-02-23T06:55:00;8.00;;;1.50;;
22774;SDS011;11554;51.106;3.684;2024-02-23T07:00:00;10.20;;;1.60;;
22774;SDS011;11554;51.106;3.684;2024-02-23T07:05:00;10.20;;;1.60;;
22774;SDS011;11554;51.106;3.684;2024-02-23T07:10:00;10.30;;;1.70;;
22774;SDS011;11554;51.106;3.684;2024-02-23T07:15:00;10.30;;;1.70;;
22774;SDS011;11554;51.106;3.684;2024-02-23T07:20:00;8.30;;;1.60;;
22774;SDS011;11554;51.106;3.684;2024-02-23T07:25:00;8.30;;;1.60;;
22774;SDS011;11554;51.106;3.684;2024-02-23T07:30:00;9.10;;;1.30;;
22774;SDS011;11554;51.106;3.684;2024-02-23T07:35:00;9.10;;;1.30;;
22774;SDS011;11554;51.106;3.684;2024-02-23T07:40:00;7.00;;;1.40;;
22774;SDS011;11554;51.106;3.684;2024-02-23T07:45:00;7.00;;;1.40;;
22774;SDS011;11554;51.106;3.684;2024-02-23T07:50:00;5.10;;;1.20;;
22774;SDS011;11554;51.106;3.684;2024-02-23T07:55:00;5.10;;;1.20;;
22774;SDS011;11554;51.106;3.684;2024-02-23T08:00:00;10.30;;;1.70;;
22774;SDS011;11554;51.106;3.684;2024-02-23T08:05:00;10.30;;;1.70;;
22774;SDS011;11554;51.106;3.684;2024-02-23T08:10:00;7.40;;;1.40;;
22774;SDS011;11554;51.106;3.684;2024-02-23T08:15:00;7.40;;;1.40;;
22774;SDS011;11554;51.106;3.684;2024-02-23T08:20:00;7.10;;;1.40;;
22774;SDS011;11554;51.106;3.684;2024-02-23T08:25:00;7.10;;;1.40;;
22774;SDS011;11554;51.106;3.684;2024-02-23T08:30:00;9.30;;;1.50;;
22774;SDS011;11554;51.106;3.684;2024-02-23T08:35:00;9.30;;;1.50;;
22774;SDS011;11554;51.106;3.684;2024-02-23T08:40:00;6.20;;;1.10;;
22774;SDS011;11554;51.106;3.684;2024-02-23T08:45:00;6.20;;;1.10;;
22774;SDS011;11554;51.106;3.684;2024-02-23T08:50:01;4.90;;;1.00;;
22774;SDS011;11554;51.106;3.684;2024-02-23T08:55:00;4.90;;;1.00;;
22774;SDS011;11554;51.106;3.684;2024-02-23T09:00:00;6.40;;;1.10;;
22774;SDS011;11554;51.106;3.684;2024-02-23T09:05:00;6.40;;;1.10;;
22774;SDS011;11554;51.106;3.684;2024-02-23T09:10:00;7.50;;;1.40;;
22774;SDS011;11554;51.106;3.684;2024-02-23T09:15:00;7.50;;;1.40;;
22774;SDS011;11554;51.106;3.684;2024-02-23T09:20:00;7.40;;;1.50;;
22774;SDS011;11554;51.106;3.684;2024-02-23T09:25:00;7.40;;;1.50;;
22774;SDS011;11554;51.106;3.684;2024-02-23T09:30:00;7.60;;;1.20;;
22774;SDS011;11554;51.106;3.684;2024-02-23T09:35:00;7.60;;;1.20;;
22774;SDS011;11554;51.106;3.684;2024-02-23T09:40:00;6.00;;;1.10;;
22774;SDS011;11554;51.106;3.684;2024-02-23T09:45:00;6.00;;;1.10;;
22774;SDS011;11554;51.106;3.684;2024-02-23T09:50:03;5.80;;;0.90;;
22774;SDS011;11554;51.106;3.684;2024-02-23T09:55:00;5.80;;;0.90;;
22774;SDS011;11554;51.106;3.684;2024-02-23T10:00:01;4.30;;;0.90;;
22774;SDS011;11554;51.106;3.684;2024-02-23T10:05:01;4.30;;;0.90;;
22774;SDS011;11554;51.106;3.684;2024-02-23T10:10:00;6.90;;;1.30;;
22774;SDS011;11554;51.106;3.684;2024-02-23T10:15:00;6.90;;;1.30;;
22774;SDS011;11554;51.106;3.684;2024-02-23T10:20:00;4.90;;;1.10;;
22774;SDS011;11554;51.106;3.684;2024-02-23T10:25:00;4.90;;;1.10;;
22774;SDS011;11554;51.106;3.684;2024-02-23T10:30:00;5.50;;;1.10;;
22774;SDS011;11554;51.106;3.684;2024-02-23T10:35:00;5.50;;;1.10;;
22774;SDS011;11554;51.106;3.684;2024-02-23T10:40:01;5.40;;;1.30;;
22774;SDS011;11554;51.106;3.684;2024-02-23T10:45:01;5.40;;;1.30;;
22774;SDS011;11554;51.106;3.684;2024-02-23T10:50:01;6.80;;;1.10;;
22774;SDS011;11554;51.106;3.684;2024-02-23T10:55:01;6.80;;;1.10;;
22774;SDS011;11554;51.106;3.684;2024-02-23T11:00:00;10.50;;;1.50;;
22774;SDS011;11554;51.106;3.684;2024-02-23T11:05:00;10.50;;;1.50;;
22774;SDS011;11554;51.106;3.684;2024-02-23T11:10:00;5.50;;;1.00;;
22774;SDS011;11554;51.106;3.684;2024-02-23T11:15:00;5.50;;;1.00;;
22774;SDS011;11554;51.106;3.684;2024-02-23T11:20:03;5.60;;;1.10;;
22774;SDS011;11554;51.106;3.684;2024-02-23T11:25:01;5.60;;;1.10;;
22774;SDS011;11554;51.106;3.684;2024-02-23T11:30:02;6.10;;;1.10;;
22774;SDS011;11554;51.106;3.684;2024-02-23T11:35:01;6.10;;;1.10;;
22774;SDS011;11554;51.106;3.684;2024-02-23T11:40:01;4.80;;;1.00;;
22774;SDS011;11554;51.106;3.684;2024-02-23T11:45:00;4.80;;;1.00;;
22774;SDS011;11554;51.106;3.684;2024-02-23T11:50:00;3.60;;;0.60;;
22774;SDS011;11554;51.106;3.684;2024-02-23T11:55:00;3.60;;;0.60;;
22774;SDS011;11554;51.106;3.684;2024-02-23T12:00:01;4.80;;;0.70;;
22774;SDS011;11554;51.106;3.684;2024-02-23T12:05:00;4.80;;;0.70;;
22774;SDS011;11554;51.106;3.684;2024-02-23T12:10:00;2.50;;;0.70;;
22774;SDS011;11554;51.106;3.684;2024-02-23T12:15:00;2.50;;;0.70;;
22774;SDS011;11554;51.106;3.684;2024-02-23T12:20:01;2.30;;;0.70;;
22774;SDS011;11554;51.106;3.684;2024-02-23T12:25:00;2.30;;;0.70;;
22774;SDS011;11554;51.106;3.684;2024-02-23T12:30:00;4.50;;;0.70;;
22774;SDS011;11554;51.106;3.684;2024-02-23T12:35:00;4.50;;;0.70;;
22774;SDS011;11554;51.106;3.684;2024-02-23T12:40:00;3.80;;;0.80;;
22774;SDS011;11554;51.106;3.684;2024-02-23T12:45:00;3.80;;;0.80;;
22774;SDS011;11554;51.106;3.684;2024-02-23T12:50:00;4.10;;;0.90;;
22774;SDS011;11554;51.106;3.684;2024-02-23T12:55:00;4.10;;;0.90;;
22774;SDS011;11554;51.106;3.684;2024-02-23T13:00:00;5.40;;;1.20;;
22774;SDS011;11554;51.106;3.684;2024-02-23T13:05:00;5.40;;;1.20;;
22774;SDS011;11554;51.106;3.684;2024-02-23T13:10:00;3.90;;;1.10;;
22774;SDS011;11554;51.106;3.684;2024-02-23T13:15:00;3.90;;;1.10;;
22774;SDS011;11554;51.106;3.684;2024-02-23T13:20:00;6.70;;;0.90;;
22774;SDS011;11554;51.106;3.684;2024-02-23T13:25:00;6.70;;;0.90;;
22774;SDS011;11554;51.106;3.684;2024-02-23T13:30:00;5.70;;;1.10;;
22774;SDS011;11554;51.106;3.684;2024-02-23T13:35:00;5.70;;;1.10;;
22774;SDS011;11554;51.106;3.684;2024-02-23T13:40:00;5.80;;;1.50;;
22774;SDS011;11554;51.106;3.684;2024-02-23T13:45:00;5.80;;;1.50;;
22774;SDS011;11554;51.106;3.684;2024-02-23T13:50:00;6.30;;;1.10;;
22774;SDS011;11554;51.106;3.684;2024-02-23T13:55:00;6.30;;;1.10;;
22774;SDS011;11554;51.106;3.684;2024-02-23T14:00:00;6.90;;;1.00;;
22774;SDS011;11554;51.106;3.684;2024-02-23T14:05:01;6.90;;;1.00;;
22774;SDS011;11554;51.106;3.684;2024-02-23T14:10:00;5.20;;;1.00;;
22774;SDS011;11554;51.106;3.684;2024-02-23T14:15:01;5.20;;;1.00;;
22774;SDS011;11554;51.106;3.684;2024-02-23T14:20:00;6.40;;;1.20;;
22774;SDS011;11554;51.106;3.684;2024-02-23T14:25:00;6.40;;;1.20;;
22774;SDS011;11554;51.106;3.684;2024-02-23T14:30:00;5.50;;;1.00;;
22774;SDS011;11554;51.106;3.684;2024-02-23T14:35:02;5.50;;;1.00;;
22774;SDS011;11554;51.106;3.684;2024-02-23T14:40:00;3.80;;;0.50;;
22774;SDS011;11554;51.106;3.684;2024-02-23T14:45:00;3.80;;;0.50;;
22774;SDS011;11554;51.106;3.684;2024-02-23T14:50:00;2.70;;;0.40;;
22774;SDS011;11554;51.106;3.684;2024-02-23T14:55:00;2.70;;;0.40;;
22774;SDS011;11554;51.106;3.684;2024-02-23T15:00:00;1.10;;;0.30;;
22774;SDS011;11554;51.106;3.684;2024-02-23T15:05:00;1.10;;;0.30;;
22774;SDS011;11554;51.106;3.684;2024-02-23T15:10:00;1.00;;;0.20;;
22774;SDS011;11554;51.106;3.684;2024-02-23T15:15:00;1.00;;;0.20;;
22774;SDS011;11554;51.106;3.684;2024-02-23T15:20:00;2.10;;;0.40;;
22774;SDS011;11554;51.106;3.684;2024-02-23T15:25:00;2.10;;;0.40;;
22774;SDS011;11554;51.106;3.684;2024-02-23T15:30:00;3.30;;;0.60;;
22774;SDS011;11554;51.106;3.684;2024-02-23T15:35:00;3.30;;;0.60;;
22774;SDS011;11554;51.106;3.684;2024-02-23T15:40:00;2.40;;;0.60;;
22774;SDS011;11554;51.106;3.684;2024-02-23T15:45:00;2.40;;;0.60;;
22774;SDS011;11554;51.106;3.684;2024-02-23T15:50:00;3.30;;;0.80;;
22774;SDS011;11554;51.106;3.684;2024-02-23T15:55:00;3.30;;;0.80;;
22774;SDS011;11554;51.106;3.684;2024-02-23T16:00:00;4.50;;;1.00;;
22774;SDS011;11554;51.106;3.684;2024-02-23T16:05:00;4.50;;;1.00;;
22774;SDS011;11554;51.106;3.684;2024-02-23T16:10:00;3.10;;;0.70;;
22774;SDS011;11554;51.106;3.684;2024-02-23T16:15:00;3.10;;;0.70;;
22774;SDS011;11554;51.106;3.684;2024-02-23T16:20:00;1.40;;;0.50;;
22774;SDS011;11554;51.106;3.684;2024-02-23T16:25:00;1.40;;;0.50;;
22774;SDS011;11554;51.106;3.684;2024-02-23T16:30:01;2.70;;;0.60;;
22774;SDS011;11554;51.106;3.684;2024-02-23T16:35:00;2.70;;;0.60;;
22774;SDS011;11554;51.106;3.684;2024-02-23T16:40:00;3.10;;;1.00;;
22774;SDS011;11554;51.106;3.684;2024-02-23T16:45:00;3.10;;;1.00;;
22774;SDS011;11554;51.106;3.684;2024-02-23T16:50:00;2.10;;;0.50;;
22774;SDS011;11554;51.106;3.684;2024-02-23T16:55:00;2.10;;;0.50;;
22774;SDS011;11554;51.106;3.684;2024-02-23T17:00:00;1.00;;;0.40;;
22774;SDS011;11554;51.106;3.684;2024-02-23T17:05:00;1.00;;;0.40;;
22774;SDS011;11554;51.106;3.684;2024-02-23T17:10:00;1.30;;;0.60;;
22774;SDS011;11554;51.106;3.684;2024-02-23T17:15:00;1.30;;;0.60;;
22774;SDS011;11554;51.106;3.684;2024-02-23T17:20:00;1.20;;;0.80;;
22774;SDS011;11554;51.106;3.684;2024-02-23T17:25:00;1.20;;;0.80;;
22774;SDS011;11554;51.106;3.684;2024-02-23T17:30:00;5.00;;;2.40;;
22774;SDS011;11554;51.106;3.684;2024-02-23T17:35:00;5.00;;;2.40;;
22774;SDS011;11554;51.106;3.684;2024-02-23T17:40:00;2.40;;;1.10;;
22774;SDS011;11554;51.106;3.684;2024-02-23T17:45:00;2.40;;;1.10;;
22774;SDS011;11554;51.106;3.684;2024-02-23T17:50:00;3.30;;;1.10;;
22774;SDS011;11554;51.106;3.684;2024-02-23T17:55:00;3.30;;;1.10;;
22774;SDS011;11554;51.106;3.684;2024-02-23T18:00:00;3.10;;;1.40;;
22774;SDS011;11554;51.106;3.684;2024-02-23T18:05:00;3.10;;;1.40;;
22774;SDS011;11554;51.106;3.684;2024-02-23T18:10:00;3.60;;;1.60;;
22774;SDS011;11554;51.106;3.684;2024-02-23T18:15:00;3.60;;;1.60;;
22774;SDS011;11554;51.106;3.684;2024-02-23T18:20:00;6.40;;;2.10;;
22774;SDS011;11554;51.106;3.684;2024-02-23T18:25:00;6.40;;;2.10;;
22774;SDS011;11554;51.106;3.684;2024-02-23T18:30:00;3.00;;;1.40;;
22774;SDS011;11554;51.106;3.684;2024-02-23T18:35:00;3.00;;;1.40;;
22774;SDS011;11554;51.106;3.684;2024-02-23T18:40:00;3.50;;;0.90;;
22774;SDS011;11554;51.106;3.684;2024-02-23T18:45:00;3.50;;;0.90;;
22774;SDS011;11554;51.106;3.684;2024-02-23T18:50:00;1.20;;;0.50;;
22774;SDS011;11554;51.106;3.684;2024-02-23T18:55:00;1.20;;;0.50;;
22774;SDS011;11554;51.106;3.684;2024-02-23T19:00:00;3.10;;;1.40;;
22774;SDS011;11554;51.106;3.684;2024-02-23T19:05:00;3.10;;;1.40;;
22774;SDS011;11554;51.106;3.684;2024-02-23T19:10:00;2.70;;;0.90;;
22774;SDS011;11554;51.106;3.684;2024-02-23T19:15:00;2.70;;;0.90;;
22774;SDS011;11554;51.106;3.684;2024-02-23T19:20:00;2.70;;;0.90;;
22774;SDS011;11554;51.106;3.684;2024-02-23T19:25:00;2.70;;;0.90;;
22774;SDS011;11554;51.106;3.684;2024-02-23T19:30:00;3.00;;;1.20;;
22774;SDS011;11554;51.106;3.684;2024-02-23T19:35:00;3.00;;;1.20;;
22774;SDS011;11554;51.106;3.684;2024-02-23T19:40:00;3.00;;;1.40;;
22774;SDS011;11554;51.106;3.684;2024-02-23T19:45:00;3.00;;;1.40;;
22774;SDS011;11554;51.106;3.684;2024-02-23T19:50:00;2.90;;;1.70;;
22774;SDS011;11554;51.106;3.684;2024-02-23T19:55:00;2.90;;;1.70;;
22774;SDS011;11554;51.106;3.684;2024-02-23T20:00:00;3.30;;;2.10;;
22774;SDS011;11554;51.106;3.684;2024-02-23T20:05:00;3.30;;;2.10;;
22774;SDS011;11554;51.106;3.684;2024-02-23T20:10:00;3.40;;;1.90;;
22774;SDS011;11554;51.106;3.684;2024-02-23T20:15:00;3.40;;;1.90;;
22774;SDS011;11554;51.106;3.684;2024-02-23T20:20:00;5.10;;;2.10;;
22774;SDS011;11554;51.106;3.684;2024-02-23T20:25:00;5.10;;;2.10;;
22774;SDS011;11554;51.106;3.684;2024-02-23T20:30:00;4.70;;;2.00;;
22774;SDS011;11554;51.106;3.684;2024-02-23T20:35:00;4.70;;;2.00;;
22774;SDS011;11554;51.106;3.684;2024-02-23T20:45:00;5.40;;;2.10;;
22774;SDS011;11554;51.106;3.684;2024-02-23T20:50:00;5.30;;;2.70;;
22774;SDS011;11554;51.106;3.684;2024-02-23T20:55:00;5.30;;;2.70;;
22774;SDS011;11554;51.106;3.684;2024-02-23T21:00:01;6.70;;;2.80;;
22774;SDS011;11554;51.106;3.684;2024-02-23T21:05:00;6.70;;;2.80;;
22774;SDS011;11554;51.106;3.684;2024-02-23T21:10:00;5.50;;;2.50;;
22774;SDS011;11554;51.106;3.684;2024-02-23T21:15:00;5.50;;;2.50;;
22774;SDS011;11554;51.106;3.684;2024-02-23T21:20:00;6.30;;;2.70;;
22774;SDS011;11554;51.106;3.684;2024-02-23T21:25:00;6.30;;;2.70;;
22774;SDS011;11554;51.106;3.684;2024-02-23T21:30:00;9.40;;;3.40;;
22774;SDS011;11554;51.106;3.684;2024-02-23T21:35:00;9.40;;;3.40;;
22774;SDS011;11554;51.106;3.684;2024-02-23T21:40:00;6.00;;;3.30;;
22774;SDS011;11554;51.106;3.684;2024-02-23T21:45:00;6.00;;;3.30;;
22774;SDS011;11554;51.106;3.684;2024-02-23T21:50:00;5.80;;;2.30;;
22774;SDS011;11554;51.106;3.684;2024-02-23T21:55:00;5.80;;;2.30;;
22774;SDS011;11554;51.106;3.684;2024-02-23T22:00:01;8.20;;;2.70;;
22774;SDS011;11554;51.106;3.684;2024-02-23T22:05:00;8.20;;;2.70;;
22774;SDS011;11554;51.106;3.684;2024-02-23T22:10:00;9.20;;;4.30;;
22774;SDS011;11554;51.106;3.684;2024-02-23T22:15:00;9.20;;;4.30;;
22774;SDS011;11554;51.106;3.684;2024-02-23T22:20:00;6.50;;;2.70;;
22774;SDS011;11554;51.106;3.684;2024-02-23T22:25:00;6.50;;;2.70;;
22774;SDS011;11554;51.106;3.684;2024-02-23T22:30:00;5.70;;;2.50;;
22774;SDS011;11554;51.106;3.684;2024-02-23T22:35:00;5.70;;;2.50;;
22774;SDS011;11554;51.106;3.684;2024-02-23T22:40:00;7.40;;;2.30;;
22774;SDS011;11554;51.106;3.684;2024-02-23T22:45:00;7.40;;;2.30;;
22774;SDS011;11554;51.106;3.684;2024-02-23T22:50:00;8.00;;;2.60;;
22774;SDS011;11554;51.106;3.684;2024-02-23T22:55:00;8.00;;;2.60;;
22774;SDS011;11554;51.106;3.684;2024-02-23T23:00:00;6.00;;;1.90;;
22774;SDS011;11554;51.106;3.684;2024-02-23T23:05:00;6.00;;;1.90;;
22774;SDS011;11554;51.106;3.684;2024-02-23T23:10:01;6.80;;;2.30;;
22774;SDS011;11554;51.106;3.684;2024-02-23T23:15:00;6.80;;;2.30;;
22774;SDS011;11554;51.106;3.684;2024-02-23T23:20:00;4.50;;;1.90;;
22774;SDS011;11554;51.106;3.684;2024-02-23T23:25:00;4.50;;;1.90;;
22774;SDS011;11554;51.106;3.684;2024-02-23T23:30:00;4.30;;;2.20;;
22774;SDS011;11554;51.106;3.684;2024-02-23T23:35:00;4.30;;;2.20;;
22774;SDS011;11554;51.106;3.684;2024-02-23T23:40:00;5.30;;;2.00;;
22774;SDS011;11554;51.106;3.684;2024-02-23T23:45:00;5.30;;;2.00;;
22774;SDS011;11554;51.106;3.684;2024-02-23T23:50:00;5.60;;;2.20;;
22774;SDS011;11554;51.106;3.684;2024-02-23T23:55:00;5.60;;;2.20;;
